createdAt,value
2017-12-13T00:00:28.326Z,9.53
2017-12-13T00:02:56.049Z,10.00
2017-12-13T00:05:23.654Z,7.17
2017-12-13T00:07:51.301Z,8.37
2017-12-13T00:10:19.034Z,11.23
2017-12-13T00:12:46.723Z,8.02
2017-12-13T00:15:14.400Z,8.25
2017-12-13T00:17:42.195Z,14.53
2017-12-13T00:20:09.873Z,7.68
2017-12-13T00:22:37.570Z,8.65
2017-12-13T00:25:05.242Z,8.88
2017-12-13T00:27:32.886Z,9.10
2017-12-13T00:30:00.478Z,9.70
2017-12-13T00:32:28.169Z,7.82
2017-12-13T00:34:55.839Z,8.80
2017-12-13T00:37:23.534Z,7.22
2017-12-13T00:39:51.135Z,7.33
2017-12-13T00:42:18.826Z,6.90
2017-12-13T00:44:46.491Z,8.90
2017-12-13T00:47:14.174Z,9.15
2017-12-13T00:49:41.834Z,8.73
2017-12-13T00:52:09.566Z,7.85
2017-12-13T00:54:37.213Z,8.23
2017-12-13T00:57:04.874Z,8.90
2017-12-13T00:59:32.545Z,9.20
2017-12-13T01:02:00.262Z,8.52
2017-12-13T01:04:27.984Z,9.48
2017-12-13T01:06:55.689Z,9.70
2017-12-13T01:09:23.420Z,7.65
2017-12-13T01:11:51.100Z,9.15
2017-12-13T01:14:18.791Z,7.60
2017-12-13T01:16:46.462Z,11.18
2017-12-13T01:19:14.190Z,8.43
2017-12-13T01:21:41.848Z,6.75
2017-12-13T01:24:09.487Z,8.20
2017-12-13T01:26:37.092Z,8.23
2017-12-13T01:29:04.728Z,17.37
2017-12-13T01:31:32.443Z,8.50
2017-12-13T01:34:00.365Z,11.10
2017-12-13T01:36:28.136Z,9.63
2017-12-13T01:38:55.906Z,11.80
2017-12-13T01:41:23.562Z,9.43
2017-12-13T01:43:51.263Z,9.38
2017-12-13T01:46:18.927Z,16.37
2017-12-13T01:48:46.609Z,9.70
2017-12-13T01:51:14.271Z,7.15
2017-12-13T01:53:41.958Z,8.57
2017-12-13T01:56:09.731Z,11.02
2017-12-13T01:58:37.418Z,9.60
2017-12-13T02:01:05.124Z,8.10
2017-12-13T02:03:32.825Z,7.62
2017-12-13T02:06:00.478Z,8.38
2017-12-13T02:08:28.218Z,6.50
2017-12-13T02:10:55.891Z,7.78
2017-12-13T02:13:23.587Z,8.65
2017-12-13T02:15:51.250Z,8.63
2017-12-13T02:18:18.982Z,9.88
2017-12-13T02:20:46.642Z,7.05
2017-12-13T02:23:14.339Z,7.97
2017-12-13T02:25:42.010Z,7.15
2017-12-13T02:28:09.705Z,7.12
2017-12-13T02:30:37.371Z,10.20
2017-12-13T02:33:05.063Z,6.68
2017-12-13T02:35:32.740Z,8.43
2017-12-13T02:38:00.440Z,11.98
2017-12-13T02:40:39.755Z,6.20
2017-12-13T02:43:07.464Z,11.40
2017-12-13T02:45:35.137Z,12.10
2017-12-13T02:48:02.877Z,7.75
2017-12-13T02:50:30.490Z,11.07
2017-12-13T02:52:58.183Z,6.80
2017-12-13T02:55:25.840Z,7.97
2017-12-13T02:57:53.511Z,6.95
2017-12-13T03:00:21.254Z,6.57
2017-12-13T03:02:48.994Z,7.85
2017-12-13T03:05:16.649Z,9.77
2017-12-13T03:07:44.354Z,8.18
2017-12-13T03:10:12.031Z,6.95
2017-12-13T03:12:39.669Z,7.93
2017-12-13T03:15:07.366Z,6.30
2017-12-13T03:17:35.022Z,8.68
2017-12-13T03:20:02.795Z,6.10
2017-12-13T03:22:31.158Z,6.57
2017-12-13T03:24:58.854Z,5.60
2017-12-13T03:27:26.519Z,6.47
2017-12-13T03:29:54.326Z,7.22
2017-12-13T03:32:21.983Z,6.47
2017-12-13T03:34:49.841Z,5.35
2017-12-13T03:37:17.506Z,5.30
2017-12-13T03:39:45.183Z,7.12
2017-12-13T03:42:12.839Z,6.93
2017-12-13T03:44:40.538Z,9.05
2017-12-13T03:47:08.195Z,7.95
2017-12-13T03:49:35.873Z,5.60
2017-12-13T03:52:03.666Z,9.23
2017-12-13T03:54:31.414Z,7.97
2017-12-13T03:56:59.038Z,8.77
2017-12-13T03:59:26.710Z,7.70
2017-12-13T04:01:54.397Z,5.75
2017-12-13T04:04:22.086Z,5.85
2017-12-13T04:06:49.778Z,5.18
2017-12-13T04:09:17.435Z,6.90
2017-12-13T04:11:45.128Z,5.05
2017-12-13T04:14:12.795Z,9.23
2017-12-13T04:16:40.540Z,8.35
2017-12-13T04:19:08.203Z,7.43
2017-12-13T04:21:35.885Z,8.90
2017-12-13T04:24:03.562Z,7.32
2017-12-13T04:26:31.258Z,9.52
2017-12-13T04:28:58.917Z,5.37
2017-12-13T04:31:26.600Z,7.18
2017-12-13T04:33:54.270Z,5.95
2017-12-13T04:36:21.973Z,7.85
2017-12-13T04:38:49.633Z,7.97
2017-12-13T04:41:17.356Z,7.40
2017-12-13T04:43:45.023Z,5.68
2017-12-13T04:46:12.687Z,5.62
2017-12-13T04:48:40.410Z,5.70
2017-12-13T04:51:08.070Z,6.60
2017-12-13T04:53:35.759Z,5.78
2017-12-13T04:56:03.409Z,6.87
2017-12-13T04:58:31.178Z,9.70
2017-12-13T05:00:58.840Z,7.32
2017-12-13T05:03:26.530Z,5.87
2017-12-13T05:05:54.206Z,5.50
2017-12-13T05:08:21.898Z,6.12
2017-12-13T05:10:49.561Z,8.45
2017-12-13T05:13:17.261Z,7.03
2017-12-13T05:15:44.923Z,6.43
2017-12-13T05:18:12.617Z,5.47
2017-12-13T05:20:40.274Z,5.47
2017-12-13T05:23:07.951Z,5.25
2017-12-13T05:25:35.612Z,5.28
2017-12-13T05:28:03.323Z,5.18
2017-12-13T05:30:31.008Z,5.40
2017-12-13T05:32:58.693Z,6.62
2017-12-13T05:35:26.403Z,14.20
2017-12-13T05:37:54.086Z,11.05
2017-12-13T05:40:21.802Z,11.60
2017-12-13T05:42:49.449Z,5.80
2017-12-13T05:45:17.141Z,6.68
2017-12-13T05:47:44.818Z,9.07
2017-12-13T05:50:12.513Z,10.75
2017-12-13T05:52:40.171Z,6.62
2017-12-13T05:55:07.880Z,5.82
2017-12-13T05:57:35.551Z,6.97
2017-12-13T06:00:03.255Z,10.65
2017-12-13T06:02:30.922Z,9.25
2017-12-13T06:04:58.622Z,9.45
2017-12-13T06:07:26.290Z,12.10
2017-12-13T06:09:53.974Z,7.32
2017-12-13T06:12:21.637Z,8.43
2017-12-13T06:14:49.334Z,6.78
2017-12-13T06:17:16.999Z,8.60
2017-12-13T06:19:44.705Z,11.00
2017-12-13T06:22:12.379Z,12.98
2017-12-13T06:24:40.073Z,6.95
2017-12-13T06:27:07.742Z,7.15
2017-12-13T06:29:35.451Z,6.68
2017-12-13T06:32:03.122Z,13.73
2017-12-13T06:34:30.815Z,7.00
2017-12-13T06:36:58.562Z,11.25
2017-12-13T06:39:26.323Z,7.15
2017-12-13T06:41:53.982Z,7.22
2017-12-13T06:44:21.712Z,6.03
2017-12-13T06:46:49.374Z,7.22
2017-12-13T06:49:17.059Z,8.07
2017-12-13T06:51:44.721Z,7.60
2017-12-13T06:54:12.420Z,6.72
2017-12-13T06:56:40.275Z,5.78
2017-12-13T06:59:07.964Z,9.45
2017-12-13T07:01:35.631Z,11.90
2017-12-13T07:04:03.324Z,5.65
2017-12-13T07:06:30.906Z,6.90
2017-12-13T07:08:58.550Z,7.53
2017-12-13T07:11:26.187Z,4.43
2017-12-13T07:13:53.801Z,4.57
2017-12-13T07:16:21.454Z,7.43
2017-12-13T07:18:49.054Z,3.93
2017-12-13T07:21:16.656Z,5.03
2017-12-13T07:23:44.267Z,5.00
2017-12-13T07:26:11.878Z,3.40
2017-12-13T07:28:39.522Z,6.10
2017-12-13T07:31:07.189Z,3.53
2017-12-13T07:33:34.822Z,2.37
2017-12-13T07:36:02.404Z,6.70
2017-12-13T07:38:30.051Z,4.63
2017-12-13T07:40:57.638Z,3.80
2017-12-13T07:43:25.218Z,5.07
2017-12-13T07:45:52.853Z,3.53
2017-12-13T07:48:20.458Z,3.20
2017-12-13T07:50:48.072Z,5.63
2017-12-13T07:53:15.674Z,2.97
2017-12-13T07:55:43.283Z,2.90
2017-12-13T07:58:10.902Z,3.07
2017-12-13T08:00:38.515Z,2.77
2017-12-13T08:03:06.178Z,3.67
2017-12-13T08:05:33.785Z,3.50
2017-12-13T08:08:01.387Z,6.50
2017-12-13T08:10:29.019Z,3.87
2017-12-13T08:12:56.606Z,5.37
2017-12-13T08:15:24.223Z,12.80
2017-12-13T08:17:51.834Z,2.73
2017-12-13T08:20:19.482Z,2.63
2017-12-13T08:22:47.124Z,4.87
2017-12-13T08:25:14.797Z,4.70
2017-12-13T08:27:42.364Z,5.20
2017-12-13T08:30:09.966Z,3.20
2017-12-13T08:32:37.589Z,4.37
2017-12-13T08:40:52.394Z,3.97
2017-12-13T08:43:20.408Z,3.10
2017-12-13T08:51:16.662Z,4.30
2017-12-13T08:59:11.725Z,4.40
2017-12-13T09:04:18.448Z,3.27
2017-12-13T09:06:54.878Z,5.00
2017-12-13T09:09:52.601Z,4.77
2017-12-13T09:12:20.762Z,3.87
2017-12-13T09:14:52.474Z,3.57
2017-12-13T09:17:22.904Z,11.07
2017-12-13T09:19:51.260Z,4.60
2017-12-13T09:22:53.023Z,9.97
2017-12-13T09:25:20.904Z,3.60
2017-12-13T09:27:48.933Z,6.60
2017-12-13T09:30:16.737Z,4.30
2017-12-13T09:32:45.218Z,5.60
2017-12-13T09:35:13.242Z,6.27
2017-12-13T09:37:41.144Z,5.73
2017-12-13T09:40:09.505Z,4.20
2017-12-13T09:42:37.579Z,5.33
2017-12-13T09:45:05.498Z,5.60
2017-12-13T09:47:33.351Z,6.40
2017-12-13T09:50:01.303Z,6.00
2017-12-13T09:52:29.478Z,5.17
2017-12-13T09:54:57.281Z,4.20
2017-12-13T09:57:25.314Z,3.63
2017-12-13T09:59:53.186Z,3.90
2017-12-13T10:02:20.923Z,5.67
2017-12-13T10:04:48.535Z,9.37
2017-12-13T10:07:16.142Z,9.67
2017-12-13T10:09:43.930Z,9.10
2017-12-13T10:12:12.882Z,11.30
2017-12-13T10:14:40.888Z,9.80
2017-12-13T10:17:08.584Z,4.90
2017-12-13T10:19:36.276Z,6.23
2017-12-13T10:22:03.938Z,10.63
2017-12-13T10:24:31.595Z,7.87
2017-12-13T10:26:59.278Z,5.30
2017-12-13T10:29:26.894Z,13.13
2017-12-13T10:31:54.636Z,8.90
2017-12-13T10:34:22.788Z,12.50
2017-12-13T10:36:50.960Z,8.10
2017-12-13T10:39:19.090Z,12.18
2017-12-13T10:41:46.898Z,11.07
2017-12-13T10:44:14.486Z,7.40
2017-12-13T10:46:42.122Z,13.37
2017-12-13T10:49:09.721Z,4.90
2017-12-13T10:51:37.362Z,6.80
2017-12-13T10:54:04.902Z,8.70
2017-12-13T10:56:32.537Z,4.27
2017-12-13T10:59:00.149Z,4.17
2017-12-13T11:01:27.769Z,2.60
2017-12-13T11:03:55.355Z,2.13
2017-12-13T11:06:23.011Z,2.23
2017-12-13T11:08:50.608Z,2.10
2017-12-13T11:11:18.214Z,2.47
2017-12-13T11:13:45.815Z,7.43
2017-12-13T11:16:13.405Z,2.90
2017-12-13T11:18:41.027Z,1.60
2017-12-13T11:21:08.630Z,4.53
2017-12-13T11:23:36.252Z,1.73
2017-12-13T11:26:03.882Z,1.60
2017-12-13T11:28:31.566Z,5.13
2017-12-13T11:30:59.127Z,2.50
2017-12-13T11:33:26.759Z,1.23
2017-12-13T11:35:54.351Z,2.10
2017-12-13T11:38:21.962Z,1.20
2017-12-13T11:40:49.538Z,1.13
2017-12-13T11:43:17.135Z,1.63
2017-12-13T11:45:44.793Z,3.00
2017-12-13T11:48:12.352Z,1.10
2017-12-13T11:50:40.020Z,1.33
2017-12-13T11:53:07.602Z,1.40
2017-12-13T11:55:35.218Z,2.50
2017-12-13T11:58:02.812Z,7.07
2017-12-13T12:00:30.443Z,2.20
2017-12-13T12:02:58.039Z,1.33
2017-12-13T12:05:25.654Z,3.00
2017-12-13T12:07:53.265Z,1.93
2017-12-13T12:10:20.870Z,2.13
2017-12-13T12:12:48.435Z,6.07
2017-12-13T12:15:16.120Z,1.13
2017-12-13T12:17:43.728Z,1.30
2017-12-13T12:20:11.359Z,0.80
2017-12-13T12:22:38.987Z,1.33
2017-12-13T12:25:06.636Z,0.90
2017-12-13T12:27:34.267Z,0.80
2017-12-13T12:30:01.886Z,1.13
2017-12-13T12:32:29.515Z,1.93
2017-12-13T12:34:57.148Z,1.07
2017-12-13T12:37:24.770Z,0.70
2017-12-13T12:39:52.403Z,6.27
2017-12-13T12:42:20.033Z,0.70
2017-12-13T12:44:47.627Z,1.03
2017-12-13T12:47:15.263Z,0.80
2017-12-13T12:49:42.918Z,0.80
2017-12-13T12:52:10.530Z,1.57
2017-12-13T12:54:38.127Z,2.07
2017-12-13T12:57:05.816Z,2.50
2017-12-13T12:59:33.408Z,1.63
2017-12-13T13:02:00.989Z,8.00
2017-12-13T13:04:28.606Z,2.17
2017-12-13T13:06:56.228Z,4.20
2017-12-13T13:09:23.878Z,0.90
2017-12-13T13:11:51.501Z,0.60
2017-12-13T13:14:19.094Z,0.80
2017-12-13T13:16:46.727Z,0.80
2017-12-13T13:19:14.350Z,0.70
2017-12-13T13:21:41.942Z,0.80
2017-12-13T13:24:09.577Z,1.47
2017-12-13T13:26:37.155Z,1.20
2017-12-13T13:29:04.766Z,1.20
2017-12-13T13:31:32.363Z,1.10
2017-12-13T13:33:59.971Z,0.87
2017-12-13T13:36:27.541Z,0.80
2017-12-13T13:38:55.159Z,1.67
2017-12-13T13:41:22.770Z,2.83
2017-12-13T13:43:50.418Z,0.70
2017-12-13T13:46:18.010Z,1.10
2017-12-13T13:48:45.654Z,0.70
2017-12-13T13:51:13.254Z,0.80
2017-12-13T13:53:40.848Z,0.77
2017-12-13T13:56:08.470Z,0.90
2017-12-13T13:58:36.146Z,0.70
2017-12-13T14:01:03.751Z,0.70
2017-12-13T14:03:31.358Z,1.83
2017-12-13T14:05:58.968Z,1.83
2017-12-13T14:08:26.606Z,0.70
2017-12-13T14:10:54.199Z,0.60
2017-12-13T14:13:21.779Z,0.93
2017-12-13T14:15:49.406Z,0.87
2017-12-13T14:18:17.008Z,0.67
2017-12-13T14:20:44.628Z,0.70
2017-12-13T14:23:12.248Z,1.30
2017-12-13T14:25:39.962Z,1.80
2017-12-13T14:28:07.576Z,0.70
2017-12-13T14:30:35.178Z,0.90
2017-12-13T14:33:02.791Z,1.10
2017-12-13T14:35:30.406Z,1.20
2017-12-13T14:37:58.039Z,1.73
2017-12-13T14:40:25.619Z,1.17
2017-12-13T14:42:53.196Z,0.80
2017-12-13T14:45:20.806Z,1.43
2017-12-13T14:47:48.396Z,1.67
2017-12-13T14:50:16.106Z,1.80
2017-12-13T14:52:43.683Z,1.60
2017-12-13T14:55:11.298Z,1.83
2017-12-13T14:57:38.874Z,1.30
2017-12-13T15:00:06.551Z,1.53
2017-12-13T15:02:34.149Z,1.50
2017-12-13T15:05:01.831Z,1.20
2017-12-13T15:07:29.410Z,2.23
2017-12-13T15:09:57.035Z,1.33
2017-12-13T15:12:24.630Z,1.50
2017-12-13T15:14:52.294Z,1.40
2017-12-13T15:17:19.887Z,2.90
2017-12-13T15:19:47.520Z,3.00
2017-12-13T15:22:15.199Z,1.47
2017-12-13T15:24:42.815Z,1.90
2017-12-13T15:27:10.552Z,3.13
2017-12-13T15:29:38.180Z,1.43
2017-12-13T15:32:05.761Z,2.30
2017-12-13T15:34:33.455Z,1.20
2017-12-13T15:37:01.012Z,1.63
2017-12-13T15:39:28.625Z,1.50
2017-12-13T15:41:56.208Z,1.73
2017-12-13T15:44:23.840Z,1.60
2017-12-13T15:46:51.426Z,1.67
2017-12-13T15:49:19.074Z,1.63
2017-12-13T15:51:46.666Z,1.30
2017-12-13T15:54:14.446Z,1.43
2017-12-13T15:56:42.063Z,0.97
2017-12-13T15:59:09.690Z,1.40
2017-12-13T16:01:37.387Z,1.87
2017-12-13T16:04:05.011Z,1.53
2017-12-13T16:06:32.598Z,0.87
2017-12-13T16:09:00.210Z,0.80
2017-12-13T16:11:27.802Z,2.10
2017-12-13T16:13:55.428Z,1.30
2017-12-13T16:16:23.027Z,1.67
2017-12-13T16:18:50.675Z,1.80
2017-12-13T16:21:18.335Z,1.00
2017-12-13T16:23:45.996Z,2.10
2017-12-13T16:26:13.594Z,3.93
2017-12-13T16:28:41.239Z,2.17
2017-12-13T16:31:08.838Z,1.17
2017-12-13T16:33:36.474Z,1.20
2017-12-13T16:36:04.066Z,1.60
2017-12-13T16:38:31.773Z,2.00
2017-12-13T16:40:59.373Z,2.37
2017-12-13T16:43:27.062Z,1.67
2017-12-13T16:45:54.634Z,1.43
2017-12-13T16:48:22.253Z,2.50
2017-12-13T16:50:49.844Z,1.03
2017-12-13T16:53:17.466Z,1.57
2017-12-13T16:55:45.115Z,1.23
2017-12-13T16:58:12.759Z,2.10
2017-12-13T17:00:40.476Z,2.77
2017-12-13T17:03:08.102Z,1.53
2017-12-13T17:05:35.682Z,13.93
2017-12-13T17:08:03.287Z,2.00
2017-12-13T17:10:30.863Z,2.20
2017-12-13T17:12:58.568Z,1.00
2017-12-13T17:15:26.159Z,0.80
2017-12-13T17:17:53.743Z,1.37
2017-12-13T17:20:21.362Z,1.27
2017-12-13T17:22:48.998Z,0.83
2017-12-13T17:25:16.583Z,1.13
2017-12-13T17:27:44.294Z,1.03
2017-12-13T17:30:11.927Z,1.10
2017-12-13T17:32:39.513Z,0.70
2017-12-13T17:35:07.135Z,1.00
2017-12-13T17:37:34.741Z,1.30
2017-12-13T17:40:02.384Z,0.80
2017-12-13T17:42:30.008Z,1.47
2017-12-13T17:44:57.788Z,1.20
2017-12-13T17:47:25.421Z,1.80
2017-12-13T17:49:53.020Z,1.47
2017-12-13T17:52:20.606Z,1.67
2017-12-13T17:54:48.296Z,1.27
2017-12-13T17:57:15.895Z,1.13
2017-12-13T17:59:43.541Z,1.17
2017-12-13T18:02:11.126Z,1.30
2017-12-13T18:04:38.734Z,1.30
2017-12-13T18:07:06.369Z,1.33
2017-12-13T18:09:33.987Z,2.67
2017-12-13T18:12:01.614Z,7.43
2017-12-13T18:14:29.243Z,1.90
2017-12-13T18:16:56.853Z,1.33
2017-12-13T18:19:24.451Z,1.83
2017-12-13T18:21:52.101Z,1.37
2017-12-13T18:24:19.722Z,3.10
2017-12-13T18:26:47.323Z,1.40
2017-12-13T18:29:14.986Z,2.00
2017-12-13T18:31:42.716Z,2.30
2017-12-13T18:34:10.445Z,1.17
2017-12-13T18:36:38.067Z,1.10
2017-12-13T18:39:07.257Z,2.80
2017-12-13T18:41:34.940Z,8.47
2017-12-13T18:44:02.564Z,3.30
2017-12-13T18:46:30.145Z,1.43
2017-12-13T18:48:57.741Z,1.17
2017-12-13T18:51:25.375Z,1.37
2017-12-13T18:53:52.967Z,3.23
2017-12-13T18:56:20.577Z,2.00
2017-12-13T18:58:48.195Z,1.33
2017-12-13T19:01:15.826Z,1.30
2017-12-13T19:03:43.405Z,1.13
2017-12-13T19:06:11.018Z,1.20
2017-12-13T19:08:38.701Z,2.50
2017-12-13T19:11:06.326Z,2.23
2017-12-13T19:13:33.918Z,4.17
2017-12-13T19:16:01.555Z,1.10
2017-12-13T19:18:29.154Z,1.50
2017-12-13T19:20:56.775Z,0.90
2017-12-13T19:23:24.364Z,1.10
2017-12-13T19:25:52.013Z,1.50
2017-12-13T19:28:19.627Z,1.30
2017-12-13T19:30:47.277Z,2.80
2017-12-13T19:33:14.868Z,1.83
2017-12-13T19:35:42.483Z,1.90
2017-12-13T19:38:10.082Z,1.77
2017-12-13T19:40:37.722Z,1.37
2017-12-13T19:43:05.330Z,1.50
2017-12-13T19:45:32.983Z,1.30
2017-12-13T19:48:00.567Z,1.33
2017-12-13T19:50:28.172Z,1.83
2017-12-13T19:52:55.782Z,2.33
2017-12-13T19:55:23.413Z,2.30
2017-12-13T19:57:51.051Z,1.40
2017-12-13T20:00:18.699Z,3.43
2017-12-13T20:02:46.309Z,1.57
2017-12-13T20:05:13.986Z,2.57
2017-12-13T20:07:41.567Z,3.13
2017-12-13T20:10:09.189Z,3.47
2017-12-13T20:12:36.790Z,1.63
2017-12-13T20:15:19.945Z,2.20
2017-12-13T20:17:47.602Z,18.33
2017-12-13T20:20:15.264Z,12.80
2017-12-13T20:22:42.855Z,4.67
2017-12-13T20:25:10.492Z,2.23
2017-12-13T20:27:38.106Z,2.30
2017-12-13T20:30:05.779Z,2.23
2017-12-13T20:32:33.422Z,1.70
2017-12-13T20:35:01.056Z,1.53
2017-12-13T20:37:28.639Z,1.87
2017-12-13T20:39:56.372Z,1.67
2017-12-13T20:42:23.984Z,1.70
2017-12-13T20:44:51.623Z,5.23
2017-12-13T20:47:19.247Z,1.63
2017-12-13T20:49:46.882Z,1.93
2017-12-13T20:52:14.492Z,2.00
2017-12-13T20:54:42.089Z,2.03
2017-12-13T20:57:09.883Z,1.87
2017-12-13T20:59:38.574Z,2.47
2017-12-13T21:02:08.309Z,1.77
2017-12-13T21:04:35.910Z,1.87
2017-12-13T21:07:03.493Z,2.50
2017-12-13T21:09:31.135Z,1.73
2017-12-13T21:11:58.758Z,3.10
2017-12-13T21:14:26.419Z,3.40
2017-12-13T21:16:53.998Z,5.30
2017-12-13T21:19:21.611Z,4.10
2017-12-13T21:21:49.250Z,26.87
2017-12-13T21:24:16.855Z,1.40
2017-12-13T21:26:44.470Z,1.67
2017-12-13T21:29:12.068Z,1.27
2017-12-13T21:31:39.682Z,1.27
2017-12-13T21:34:07.285Z,2.33
2017-12-13T21:36:34.950Z,1.20
2017-12-13T21:39:02.653Z,1.07
2017-12-13T21:41:30.270Z,2.23
2017-12-13T21:43:57.884Z,1.50
2017-12-13T21:46:25.559Z,2.30
2017-12-13T21:48:53.136Z,1.47
2017-12-13T21:51:20.830Z,0.70
2017-12-13T21:53:48.446Z,0.90
2017-12-13T21:56:16.050Z,0.80
2017-12-13T21:58:43.642Z,2.53
2017-12-13T22:01:11.267Z,1.00
2017-12-13T22:03:38.847Z,0.80
2017-12-13T22:06:06.563Z,1.00
2017-12-13T22:08:34.142Z,0.90
2017-12-13T22:11:01.783Z,1.87
2017-12-13T22:13:29.370Z,0.90
2017-12-13T22:15:56.982Z,2.37
2017-12-13T22:18:24.734Z,0.70
2017-12-13T22:20:52.350Z,1.90
2017-12-13T22:23:19.963Z,1.53
2017-12-13T22:25:47.619Z,2.50
2017-12-13T22:28:15.194Z,7.80
2017-12-13T22:30:42.842Z,2.63
2017-12-13T22:33:10.470Z,2.13
2017-12-13T22:35:38.055Z,1.33
2017-12-13T22:38:05.671Z,1.43
2017-12-13T22:40:33.414Z,1.40
2017-12-13T22:43:01.069Z,3.23
2017-12-13T22:45:28.662Z,2.23
2017-12-13T22:47:56.268Z,2.13
2017-12-13T22:50:23.887Z,1.30
2017-12-13T22:52:51.530Z,3.30
2017-12-13T22:55:19.127Z,8.87
2017-12-13T22:57:46.742Z,2.07
2017-12-13T23:00:14.334Z,4.50
2017-12-13T23:02:42.046Z,4.87
2017-12-13T23:05:09.640Z,4.00
2017-12-13T23:07:37.251Z,1.90
2017-12-13T23:10:04.915Z,7.90
2017-12-13T23:12:32.579Z,4.10
2017-12-13T23:15:00.323Z,4.53
2017-12-13T23:17:28.127Z,4.57
2017-12-13T23:19:55.715Z,5.17
2017-12-13T23:22:23.329Z,3.17
2017-12-13T23:24:50.958Z,2.10
2017-12-13T23:27:18.545Z,2.80
2017-12-13T23:29:46.153Z,1.80
2017-12-13T23:32:13.759Z,3.57
2017-12-13T23:34:41.391Z,5.63
2017-12-13T23:37:08.968Z,7.13
2017-12-13T23:39:36.574Z,3.60
2017-12-13T23:42:04.143Z,5.43
2017-12-13T23:44:31.766Z,2.10
2017-12-13T23:46:59.351Z,2.53
2017-12-13T23:49:26.970Z,4.17
2017-12-13T23:51:54.666Z,2.90
2017-12-13T23:54:22.282Z,2.37
2017-12-13T23:56:49.860Z,2.23
2017-12-13T23:59:17.476Z,2.10
